Time;durP1;ratioP1;P1;durP2;ratioP2;P2;SDS_P1;SDS_P2;PMS_P1;PMS_P2;Temp;Humidity;BMP_temperature;BMP_pressure;BME280_temperature;BME280_humidity;BME280_pressure;Samples;Min_cycle;Max_cycle;Signal;HPM_P1;HPM_P2
2022/06/20 00:00:23;;;;;;;0.10;0.10;;;;;;;23.09;47.66;100910.09;5130128;27;20078;-33
2022/06/20 00:02:51;;;;;;;0.10;0.10;;;;;;;23.09;47.63;100912.03;5128875;27;20082;-32
2022/06/20 00:05:20;;;;;;;0.10;0.10;;;;;;;23.07;47.47;100904.03;5128615;27;20385;-32
2022/06/20 00:07:46;;;;;;;0.10;0.10;;;;;;;23.08;47.59;100905.66;5112272;27;20098;-33
2022/06/20 00:10:14;;;;;;;0.10;0.10;;;;;;;23.08;47.62;100897.34;5129231;27;20047;-31
2022/06/20 00:12:39;;;;;;;0.10;0.10;;;;;;;23.07;47.59;100889.31;5129758;27;20108;-32
2022/06/20 00:15:06;;;;;;;0.10;0.10;;;;;;;23.07;47.62;100897.66;5095884;27;20393;-32
2022/06/20 00:17:31;;;;;;;0.10;0.10;;;;;;;23.08;47.60;100896.53;5130278;27;20397;-32
2022/06/20 00:19:57;;;;;;;0.10;0.10;;;;;;;23.09;47.55;100898.16;5131322;27;20039;-32
2022/06/20 00:22:23;;;;;;;0.10;0.10;;;;;;;23.08;47.67;100877.91;5129605;27;20335;-31
2022/06/20 00:24:48;;;;;;;0.10;0.10;;;;;;;23.08;47.50;100880.66;5129077;27;20043;-32
2022/06/20 00:27:14;;;;;;;0.10;0.10;;;;;;;23.07;47.55;100867.09;5130209;27;20055;-31
2022/06/20 00:29:41;;;;;;;0.10;0.10;;;;;;;23.07;47.64;100856.81;5110656;27;20047;-32
2022/06/20 00:32:08;;;;;;;0.10;0.10;;;;;;;23.09;47.42;100848.16;5131049;27;20084;-32
2022/06/20 00:34:35;;;;;;;0.10;0.10;;;;;;;23.08;47.54;100840.97;5108708;28;20078;-32
2022/06/20 00:37:01;;;;;;;0.10;0.10;;;;;;;23.08;47.48;100839.00;5117826;27;20439;-32
2022/06/20 00:39:27;;;;;;;0.10;0.10;;;;;;;23.08;47.70;100821.53;5129479;27;20089;-31
2022/06/20 00:41:53;;;;;;;0.10;0.10;;;;;;;23.07;47.62;100803.22;5110749;27;20051;-31
2022/06/20 00:44:24;;;;;;;0.10;0.10;;;;;;;23.07;47.61;100815.16;5127276;27;20130;-32
2022/06/20 00:46:51;;;;;;;0.10;0.10;;;;;;;23.08;47.56;100816.78;5111585;28;20086;-32
2022/06/20 00:49:21;;;;;;;0.10;0.10;;;;;;;23.08;47.44;100815.97;5127505;27;20047;-31
2022/06/20 00:51:50;;;;;;;0.10;0.10;;;;;;;23.08;47.62;100824.31;5118723;27;20074;-32
2022/06/20 00:54:29;;;;;;;0.10;0.10;;;;;;;23.08;47.63;100840.97;5130306;27;20074;-31
2022/06/20 00:57:03;;;;;;;0.10;0.10;;;;;;;23.07;47.53;100859.59;5130161;28;20094;-31
2022/06/20 00:59:33;;;;;;;0.10;0.10;;;;;;;23.09;47.58;100875.94;5126327;27;20089;-32
2022/06/20 01:02:00;;;;;;;0.10;0.10;;;;;;;23.09;47.64;100901.75;5129615;27;20078;-31
2022/06/20 01:04:33;;;;;;;0.10;0.10;;;;;;;23.08;47.54;100936.22;5113218;28;20087;-32
2022/06/20 01:07:00;;;;;;;0.10;0.10;;;;;;;23.09;47.63;100989.81;5094658;28;20490;-32
2022/06/20 01:09:29;;;;;;;0.10;0.10;;;;;;;23.09;47.56;101025.94;5128413;27;20506;-31
2022/06/20 01:12:02;;;;;;;0.10;0.10;;;;;;;23.08;47.67;101052.91;5101639;27;20168;-31
2022/06/20 01:14:34;;;;;;;0.10;0.10;;;;;;;23.08;47.71;101069.56;5105959;28;20074;-31
2022/06/20 01:17:02;;;;;;;0.10;0.10;;;;;;;23.08;47.66;101097.34;5119278;27;20126;-31
2022/06/20 01:19:51;;;;;;;0.10;0.10;;;;;;;23.09;47.60;101129.53;5110795;27;20053;-32
2022/06/20 01:22:36;;;;;;;0.10;0.10;;;;;;;23.08;47.62;101152.06;5099740;28;20698;-31
2022/06/20 01:25:39;;;;;;;0.10;0.10;;;;;;;23.09;47.64;101162.06;5110863;28;20074;-31
2022/06/20 01:28:08;;;;;;;0.10;0.10;;;;;;;23.07;47.86;101156.81;5124688;27;20075;-31
2022/06/20 01:30:35;;;;;;;0.10;0.10;;;;;;;23.08;47.72;101138.19;5094582;28;20558;-31
2022/06/20 01:33:01;;;;;;;0.00;0.00;;;;;;;23.08;47.47;101132.63;5128573;27;20491;-31
2022/06/20 01:38:15;;;;;;;0.10;0.10;;;;;;;23.07;47.79;101092.09;5119848;27;20530;-31
2022/06/20 01:42:18;;;;;;;0.10;0.10;;;;;;;23.07;47.83;101097.66;5113754;28;20082;-32
2022/06/20 01:43:29;;;;;;;0.03;0.03;;;;;;;23.07;47.53;101092.09;5106652;28;20105;-32
2022/06/20 01:45:58;;;;;;;0.00;0.00;;;;;;;23.07;47.57;101075.44;5112417;28;20097;-32
2022/06/20 01:48:27;;;;;;;0.10;0.10;;;;;;;23.08;47.77;101063.19;5129648;27;20043;-32
2022/06/20 01:50:52;;;;;;;0.10;0.10;;;;;;;23.08;47.76;101027.06;5102228;28;20130;-32
2022/06/20 01:53:21;;;;;;;0.10;0.10;;;;;;;23.08;47.62;101019.56;5130305;28;20127;-31
2022/06/20 01:55:49;;;;;;;0.10;0.10;;;;;;;23.07;47.65;101009.59;5132143;27;20768;-33
2022/06/20 01:58:20;;;;;;;0.10;0.10;;;;;;;23.07;47.63;101009.59;5131278;27;20143;-33
2022/06/20 02:00:46;;;;;;;0.10;0.10;;;;;;;23.07;47.61;101004.03;5130896;27;20058;-33
2022/06/20 02:03:16;;;;;;;0.10;0.10;;;;;;;23.06;47.62;100980.16;5131846;27;20047;-32
2022/06/20 02:05:44;;;;;;;0.10;0.10;;;;;;;23.07;47.47;100959.59;5132851;27;20169;-32
2022/06/20 02:08:10;;;;;;;0.10;0.10;;;;;;;23.06;47.57;100937.66;5130700;27;20114;-32
2022/06/20 02:10:41;;;;;;;0.10;0.10;;;;;;;23.05;47.55;100920.16;5115814;27;20103;-31
2022/06/20 02:13:08;;;;;;;0.10;0.10;;;;;;;23.06;47.66;100896.00;5115181;27;20109;-32
2022/06/20 02:15:34;;;;;;;0.10;0.10;;;;;;;23.06;47.65;100874.63;5131178;27;20047;-32
2022/06/20 02:18:01;;;;;;;0.10;0.10;;;;;;;23.06;47.65;100855.16;5132014;27;20479;-33
2022/06/20 02:20:34;;;;;;;0.10;0.10;;;;;;;23.05;47.70;100831.28;5096417;27;20139;-32
2022/06/20 02:23:00;;;;;;;0.10;0.10;;;;;;;23.05;47.67;100800.72;5114623;28;20133;-32
2022/06/20 02:25:30;;;;;;;0.10;0.10;;;;;;;23.05;47.50;100775.72;5130624;28;20446;-33
2022/06/20 02:28:02;;;;;;;0.10;0.10;;;;;;;23.05;47.64;100764.63;5130454;27;20403;-32
2022/06/20 02:30:29;;;;;;;0.10;0.10;;;;;;;23.04;47.52;100752.69;5113991;27;20080;-32
2022/06/20 02:32:58;;;;;;;0.10;0.10;;;;;;;23.05;47.62;100731.28;5132319;27;20094;-32
2022/06/20 02:35:24;;;;;;;0.10;0.10;;;;;;;23.04;47.57;100715.78;5113594;28;20134;-33
2022/06/20 02:37:50;;;;;;;0.10;0.10;;;;;;;23.03;47.64;100703.84;5130618;27;20047;-33
2022/06/20 02:40:18;;;;;;;0.10;0.10;;;;;;;23.03;47.54;100689.97;5132975;27;20366;-33
2022/06/20 02:42:49;;;;;;;0.10;0.10;;;;;;;23.04;47.63;100676.88;5121363;27;20380;-31
2022/06/20 02:45:15;;;;;;;0.10;0.10;;;;;;;23.02;47.51;100668.88;5110884;28;20082;-31
2022/06/20 02:47:44;;;;;;;0.10;0.10;;;;;;;23.04;47.66;100683.25;5129063;27;20468;-32
2022/06/20 02:50:12;;;;;;;0.10;0.10;;;;;;;23.03;47.56;100689.97;5112306;27;20075;-32
2022/06/20 02:52:44;;;;;;;0.10;0.10;;;;;;;23.03;47.56;100709.41;5101349;28;20134;-32
2022/06/20 02:55:11;;;;;;;0.10;0.10;;;;;;;23.04;47.59;100713.00;5130030;28;20476;-32
2022/06/20 02:57:41;;;;;;;0.10;0.10;;;;;;;23.02;47.50;100718.88;5131278;27;20126;-33
2022/06/20 03:00:15;;;;;;;0.10;0.10;;;;;;;23.03;47.58;100730.81;5132519;27;21353;-32
2022/06/20 03:02:46;;;;;;;0.10;0.10;;;;;;;23.03;47.71;100744.69;5123648;27;20514;-32
2022/06/20 03:05:12;;;;;;;0.10;0.10;;;;;;;23.03;47.66;100748.28;5114909;28;20071;-31
2022/06/20 03:07:40;;;;;;;0.10;0.10;;;;;;;23.02;47.65;100723.59;5129443;27;20047;-32
2022/06/20 03:10:34;;;;;;;0.10;0.10;;;;;;;23.02;47.65;100724.44;5130770;27;20082;-33
2022/06/20 03:13:00;;;;;;;0.10;0.10;;;;;;;23.02;47.61;100718.06;5103992;28;20139;-31
2022/06/20 03:15:27;;;;;;;0.10;0.10;;;;;;;23.01;47.64;100722.78;5112368;28;20039;-33
2022/06/20 03:17:53;;;;;;;0.10;0.10;;;;;;;23.01;47.66;100721.94;5117787;27;20102;-32
2022/06/20 03:20:20;;;;;;;0.10;0.10;;;;;;;23.01;47.72;100720.00;5113897;28;20063;-32
2022/06/20 03:22:53;;;;;;;0.10;0.10;;;;;;;23.00;47.52;100721.13;5130369;28;20075;-32
2022/06/20 03:25:19;;;;;;;0.10;0.10;;;;;;;23.00;47.55;100718.34;5131193;28;20076;-31
2022/06/20 03:27:45;;;;;;;0.10;0.10;;;;;;;23.02;47.66;100729.16;5129235;27;20817;-32
2022/06/20 03:30:32;;;;;;;0.10;0.10;;;;;;;23.01;47.61;100738.59;5109803;27;20366;-32
2022/06/20 03:32:59;;;;;;;0.10;0.10;;;;;;;23.00;47.58;100735.00;5107445;28;20070;-32
2022/06/20 03:35:30;;;;;;;0.10;0.10;;;;;;;23.01;47.57;100731.13;5130364;27;20043;-32
2022/06/20 03:37:58;;;;;;;0.10;0.10;;;;;;;23.00;47.70;100737.78;5104008;27;20082;-32
2022/06/20 03:40:24;;;;;;;0.10;0.10;;;;;;;23.00;47.49;100736.97;5112989;28;20525;-31
2022/06/20 03:42:51;;;;;;;0.10;0.10;;;;;;;23.01;47.52;100742.22;5118437;27;20058;-32
2022/06/20 03:45:17;;;;;;;0.10;0.10;;;;;;;23.01;47.64;100741.38;5127857;27;20053;-31
2022/06/20 03:47:51;;;;;;;0.10;0.10;;;;;;;22.99;47.79;100743.66;5127834;27;20070;-32
2022/06/20 03:50:23;;;;;;;0.10;0.10;;;;;;;23.00;47.68;100756.41;5110443;28;20070;-32
2022/06/20 03:52:57;;;;;;;0.10;0.10;;;;;;;22.99;47.68;100780.59;5131998;27;20138;-33
2022/06/20 03:55:30;;;;;;;0.10;0.10;;;;;;;23.00;47.65;100803.63;5130823;27;20097;-31
2022/06/20 03:58:02;;;;;;;0.10;0.10;;;;;;;22.99;47.60;100819.47;5094686;27;20066;-32
2022/06/20 04:00:42;;;;;;;0.10;0.10;;;;;;;22.99;47.76;100838.91;5132175;27;20043;-32
2022/06/20 04:03:24;;;;;;;0.10;0.10;;;;;;;22.99;47.75;100866.69;5112029;28;20089;-33
2022/06/20 04:05:57;;;;;;;0.10;0.10;;;;;;;23.00;47.66;100895.28;5125381;27;20043;-31
2022/06/20 04:11:21;;;;;;;0.10;0.10;;;;;;;22.99;47.44;100935.28;5100236;28;20149;-33
2022/06/20 04:13:57;;;;;;;0.10;0.10;;;;;;;22.99;47.63;100952.78;5124752;27;20216;-32
2022/06/20 04:16:32;;;;;;;0.10;0.10;;;;;;;22.99;47.66;100957.50;5130513;27;20054;-32
2022/06/20 04:19:14;;;;;;;0.10;0.10;;;;;;;22.99;47.79;100976.94;5120034;27;20047;-33
2022/06/20 04:21:58;;;;;;;0.10;0.10;;;;;;;23.00;47.75;100992.47;5111936;27;20161;-32
2022/06/20 04:24:50;;;;;;;0.10;0.10;;;;;;;22.98;47.72;101001.13;5109950;28;20090;-31
2022/06/20 04:27:37;;;;;;;0.10;0.10;;;;;;;22.98;47.76;100992.78;5129255;27;20134;-32
2022/06/20 04:30:19;;;;;;;0.10;0.10;;;;;;;22.98;47.72;101001.13;5122322;27;20039;-31
2022/06/20 04:32:50;;;;;;;0.10;0.10;;;;;;;22.99;47.70;101013.06;5108055;28;20460;-32
2022/06/20 04:35:24;;;;;;;0.10;0.10;;;;;;;22.98;47.73;101019.75;5125340;28;20137;-33
2022/06/20 04:37:54;;;;;;;0.10;0.10;;;;;;;22.98;47.58;101017.78;5129456;27;20655;-33
2022/06/20 04:40:30;;;;;;;0.10;0.10;;;;;;;22.98;47.56;101030.88;5128056;27;20079;-33
2022/06/20 04:43:03;;;;;;;0.10;0.10;;;;;;;22.98;47.91;101028.09;5121795;28;20130;-32
2022/06/20 04:45:34;;;;;;;0.10;0.10;;;;;;;22.99;47.82;101038.06;5108698;28;20140;-33
2022/06/20 04:48:06;;;;;;;0.10;0.10;;;;;;;22.97;47.67;101024.47;5116613;27;20125;-33
2022/06/20 04:50:33;;;;;;;0.10;0.10;;;;;;;22.98;47.74;101026.13;5110924;28;20134;-32
2022/06/20 04:53:05;;;;;;;0.10;0.10;;;;;;;22.97;47.52;101018.94;5101383;28;20138;-33
2022/06/20 04:55:33;;;;;;;0.10;0.10;;;;;;;22.97;47.68;101013.38;5120765;27;20050;-32
2022/06/20 04:58:02;;;;;;;0.10;0.10;;;;;;;22.97;47.63;101006.97;5109249;28;20086;-32
2022/06/20 05:00:37;;;;;;;0.10;0.10;;;;;;;22.97;47.81;101006.97;5111094;27;20070;-33
2022/06/20 05:03:05;;;;;;;0.10;0.10;;;;;;;22.96;47.81;101006.16;5094484;27;20507;-33
2022/06/20 05:05:33;;;;;;;0.10;0.10;;;;;;;22.96;47.68;101000.59;5129384;28;20043;-32
2022/06/20 05:08:00;;;;;;;0.10;0.10;;;;;;;22.96;47.69;100988.66;5131151;27;20093;-33
2022/06/20 05:10:33;;;;;;;0.10;0.10;;;;;;;22.95;47.70;100996.19;5127902;27;20081;-33
2022/06/20 05:13:08;;;;;;;0.10;0.10;;;;;;;22.95;47.65;100993.41;5123774;27;20134;-33
2022/06/20 05:15:44;;;;;;;0.10;0.10;;;;;;;22.96;47.76;100997.81;5117117;27;20086;-32
2022/06/20 05:18:21;;;;;;;0.10;0.10;;;;;;;22.95;47.67;101000.91;5126785;27;20101;-33
2022/06/20 05:20:47;;;;;;;0.10;0.10;;;;;;;22.95;47.79;100996.19;5128838;27;20134;-32
2022/06/20 05:23:18;;;;;;;0.10;0.10;;;;;;;22.95;47.69;101004.50;5131339;27;20396;-32
2022/06/20 05:25:44;;;;;;;0.10;0.10;;;;;;;22.95;47.75;101012.84;5121463;28;20301;-34
2022/06/20 05:28:13;;;;;;;0.10;0.10;;;;;;;22.96;47.80;101013.66;5122412;27;20496;-33
2022/06/20 05:30:41;;;;;;;0.10;0.10;;;;;;;22.96;47.64;101005.31;5111341;28;20090;-32
2022/06/20 05:33:19;;;;;;;0.10;0.10;;;;;;;22.95;47.70;101007.28;5131318;27;20054;-33
2022/06/20 05:35:47;;;;;;;;;;;;;;;22.95;47.83;101006.47;5131930;27;20074;-35
2022/06/20 05:38:23;;;;;;;0.10;0.10;;;;;;;22.94;47.66;100999.28;5128938;27;19920;-34
2022/06/20 05:40:53;;;;;;;0.10;0.10;;;;;;;22.95;47.81;100998.13;5128570;28;20474;-35
2022/06/20 05:43:27;;;;;;;0.10;0.10;;;;;;;22.86;48.59;100999.94;5120789;27;20058;-35
2022/06/20 05:45:57;;;;;;;0.10;0.10;;;;;;;22.92;48.38;101004.28;5114869;27;20089;-34
2022/06/20 05:48:27;;;;;;;0.10;0.10;;;;;;;22.95;48.44;101006.47;5129360;27;20039;-36
2022/06/20 05:51:00;;;;;;;0.10;0.10;;;;;;;22.95;48.26;101001.72;5116147;28;20093;-35
2022/06/20 05:53:33;;;;;;;0.10;0.10;;;;;;;22.97;48.16;101009.75;5119275;27;20162;-35
2022/06/20 05:56:01;;;;;;;0.10;0.10;;;;;;;22.98;48.01;101012.25;5119318;27;20189;-35
2022/06/20 05:58:35;;;;;;;0.10;0.10;;;;;;;22.98;47.97;101003.91;5128880;27;20039;-35
2022/06/20 06:01:04;;;;;;;0.10;0.10;;;;;;;22.99;47.87;101008.31;5128998;27;20074;-36
2022/06/20 06:03:38;;;;;;;0.10;0.10;;;;;;;23.00;48.01;100998.03;5130461;27;20039;-35
2022/06/20 06:06:10;;;;;;;0.10;0.10;;;;;;;23.01;47.85;100992.19;5126529;27;20161;-35
2022/06/20 06:08:42;;;;;;;0.10;0.10;;;;;;;23.01;47.88;100981.09;5110957;27;20078;-34
2022/06/20 06:11:24;;;;;;;0.10;0.10;;;;;;;23.13;48.58;100968.63;5127262;27;20058;-33
2022/06/20 06:14:14;;;;;;;0.10;0.10;;;;;;;23.32;48.80;100988.03;5105112;27;20142;-42
2022/06/20 06:16:47;;;;;;;0.10;0.10;;;;;;;23.31;48.80;100978.03;5112159;27;20521;-34
2022/06/20 06:19:29;;;;;;;0.10;0.10;;;;;;;23.29;48.76;100987.50;5106549;28;20089;-33
2022/06/20 06:21:56;;;;;;;0.10;0.10;;;;;;;23.26;48.71;100999.22;5129963;27;20101;-33
2022/06/20 06:24:29;;;;;;;0.10;0.10;;;;;;;23.25;48.65;100991.19;5093419;27;20047;-33
2022/06/20 06:26:57;;;;;;;0.10;0.10;;;;;;;23.24;48.45;100970.94;5129969;27;20082;-34
2022/06/20 06:29:27;;;;;;;0.10;0.10;;;;;;;23.25;48.39;100977.31;5127346;27;20109;-33
2022/06/20 06:31:57;;;;;;;0.10;0.10;;;;;;;23.25;48.28;100991.19;5112430;27;20109;-34
2022/06/20 06:34:39;;;;;;;0.10;0.10;;;;;;;23.25;48.17;100999.53;5118587;27;20285;-33
2022/06/20 06:37:15;;;;;;;0.10;0.10;;;;;;;23.26;48.20;100995.63;5128452;27;20086;-34
2022/06/20 06:39:48;;;;;;;0.10;0.10;;;;;;;23.26;48.01;100995.63;5124362;27;20555;-33
2022/06/20 06:42:20;;;;;;;0.10;0.10;;;;;;;23.26;48.04;101013.09;5120003;27;20462;-33
2022/06/20 06:44:48;;;;;;;0.10;0.10;;;;;;;23.28;47.82;101023.94;5119416;27;20476;-34
2022/06/20 06:47:21;;;;;;;0.10;0.10;;;;;;;23.28;48.04;101015.59;5112964;27;20115;-33
2022/06/20 06:49:50;;;;;;;0.10;0.10;;;;;;;23.28;47.93;101005.31;5124867;27;20055;-34
2022/06/20 06:52:30;;;;;;;0.10;0.10;;;;;;;23.30;47.85;101018.88;5122802;27;20126;-33
2022/06/20 06:55:18;;;;;;;0.10;0.10;;;;;;;23.31;47.76;101028.03;5120677;28;20414;-34
2022/06/20 06:57:48;;;;;;;0.10;0.10;;;;;;;23.32;47.77;101019.41;5101802;27;20083;-34
2022/06/20 07:00:19;;;;;;;0.10;0.10;;;;;;;23.32;47.66;101030.53;5100193;28;20173;-34
2022/06/20 07:02:51;;;;;;;0.10;0.10;;;;;;;23.34;47.77;101030.22;5099078;27;20150;-34
2022/06/20 07:05:26;;;;;;;0.10;0.10;;;;;;;23.06;49.35;101024.63;5120045;27;20508;-42
2022/06/20 07:08:05;;;;;;;0.10;0.10;;;;;;;23.12;49.56;101022.56;5103150;27;20130;-32
2022/06/20 07:10:38;;;;;;;0.10;0.10;;;;;;;23.28;49.27;101046.16;5102044;27;20161;-33
2022/06/20 07:13:13;;;;;;;0.10;0.10;;;;;;;23.35;48.55;101054.09;5126092;27;20554;-33
2022/06/20 07:15:39;;;;;;;0.10;0.10;;;;;;;23.39;48.59;101061.50;5124252;27;20085;-33
2022/06/20 07:18:13;;;;;;;0.10;0.10;;;;;;;23.42;48.46;101065.63;5125001;27;20465;-33
2022/06/20 07:20:41;;;;;;;0.10;0.10;;;;;;;23.42;48.32;101069.22;5123811;27;20078;-33
2022/06/20 07:23:11;;;;;;;0.10;0.10;;;;;;;23.44;48.14;101068.91;5117399;27;20461;-33
2022/06/20 07:25:40;;;;;;;0.10;0.10;;;;;;;23.35;48.66;101074.34;5111648;27;20483;-35
2022/06/20 07:28:34;;;;;;;0.10;0.10;;;;;;;23.21;49.12;101073.50;5108038;28;20082;-35
2022/06/20 07:31:08;;;;;;;0.10;0.10;;;;;;;22.83;49.34;101081.88;5103033;28;20502;-34
2022/06/20 07:33:38;;;;;;;0.10;0.10;;;;;;;22.75;49.89;101080.63;5121380;27;20544;-42
2022/06/20 07:36:06;;;;;;;0.10;0.10;;;;;;;22.69;49.92;101078.22;5110229;27;20043;-39
2022/06/20 07:38:38;;;;;;;0.10;0.10;;;;;;;22.69;50.00;101069.88;5089308;28;20058;-40
2022/06/20 07:41:09;;;;;;;0.10;0.10;;;;;;;22.60;49.25;101078.06;5124099;27;20531;-37
2022/06/20 07:43:40;;;;;;;0.10;0.10;;;;;;;22.55;48.69;101078.16;5126186;27;20080;-40
2022/06/20 07:46:11;;;;;;;0.10;0.10;;;;;;;22.49;48.59;101087.66;5127414;27;20051;-39
2022/06/20 07:48:40;;;;;;;0.10;0.10;;;;;;;22.46;49.18;101074.41;5122368;27;20074;-39
2022/06/20 07:51:12;;;;;;;0.10;0.10;;;;;;;22.42;49.84;101076.94;5124591;27;20176;-39
2022/06/20 07:53:43;;;;;;;0.10;0.10;;;;;;;22.46;49.85;101077.19;5107356;27;20082;-40
2022/06/20 07:56:15;;;;;;;0.10;0.10;;;;;;;22.46;50.26;101082.72;5108994;27;20690;-37
2022/06/20 07:58:43;;;;;;;0.10;0.10;;;;;;;;;;5092669;28;20129;-41
2022/06/20 08:01:15;;;;;;;;;;;;;;;22.49;50.12;101079.34;5123642;27;20130;-39
2022/06/20 08:03:50;;;;;;;0.10;0.10;;;;;;;22.49;50.18;101084.88;5122063;27;19934;-38
2022/06/20 08:06:38;;;;;;;0.10;0.10;;;;;;;22.44;50.33;101090.50;5106592;28;20047;-39
2022/06/20 08:09:27;;;;;;;0.10;0.10;;;;;;;22.35;50.66;101093.13;5094317;28;20557;-42
2022/06/20 08:11:59;;;;;;;0.10;0.10;;;;;;;22.33;51.52;101102.91;5106545;28;20061;-43
2022/06/20 08:15:02;;;;;;;0.10;0.10;;;;;;;22.49;51.24;101110.69;5118590;27;20074;-43
2022/06/20 08:17:29;;;;;;;0.10;0.10;;;;;;;22.44;51.41;101116.31;5103809;27;20131;-43
2022/06/20 08:19:56;;;;;;;0.10;0.10;;;;;;;22.55;51.48;101122.56;5101135;27;20129;-43
2022/06/20 08:22:35;;;;;;;;;;;;;;;22.60;51.69;101127.22;5107528;27;20043;-44
2022/06/20 08:25:21;;;;;;;0.10;0.10;;;;;;;22.54;50.08;101124.53;5117660;27;19967;-42
2022/06/20 08:27:52;;;;;;;0.10;0.10;;;;;;;22.61;50.22;101124.13;5102857;27;20137;-43
2022/06/20 08:30:30;;;;;;;0.10;0.10;;;;;;;22.57;51.36;101131.41;5100769;27;20476;-42
2022/06/20 08:36:16;;;;;;;0.10;0.10;;;;;;;22.47;51.10;101137.09;5153048;27;20217;-31
2022/06/20 08:38:47;;;;;;;0.22;0.15;;;;;;;22.64;50.74;101145.75;5119699;27;20496;-34
2022/06/20 08:41:28;;;;;;;0.10;0.10;;;;;;;22.66;50.53;101143.47;5156591;27;20125;-34
2022/06/20 08:47:17;;;;;;;0.10;0.10;;;;;;;22.50;50.51;101142.06;5150188;27;20213;-32
2022/06/20 08:50:25;;;;;;;0.10;0.10;;;;;;;22.64;50.16;101145.75;5107229;27;20268;-41
2022/06/20 08:53:35;;;;;;;0.10;0.10;;;;;;;22.71;50.13;101162.00;5114713;27;20047;-35
2022/06/20 08:56:11;;;;;;;0.10;0.10;;;;;;;22.65;49.78;101163.22;5121199;27;20084;-35
2022/06/20 08:58:54;;;;;;;0.10;0.10;;;;;;;22.64;50.43;101161.59;5117455;27;20122;-34
2022/06/20 09:01:59;;;;;;;0.10;0.10;;;;;;;22.75;49.33;101151.97;5133078;27;20077;-36
2022/06/20 09:04:39;;;;;;;0.10;0.10;;;;;;;22.77;50.15;101155.28;5106219;27;20982;-36
2022/06/20 09:07:17;;;;;;;0.10;0.10;;;;;;;22.75;49.85;101151.97;5133713;27;20122;-35
2022/06/20 09:10:07;;;;;;;0.00;0.00;;;;;;;22.68;49.75;101149.56;5131184;27;20071;-35
2022/06/20 09:15:44;;;;;;;0.10;0.10;;;;;;;22.77;49.60;101147.78;5155400;27;20201;-30
2022/06/20 09:18:26;;;;;;;0.10;0.10;;;;;;;22.76;49.71;101160.00;5130207;27;20528;-33
2022/06/20 09:21:31;;;;;;;0.10;0.10;;;;;;;22.70;49.44;101155.66;5133658;27;20317;-43
2022/06/20 09:24:32;;;;;;;0.10;0.10;;;;;;;22.77;48.57;101164.44;5125322;27;20134;-38
2022/06/20 09:27:08;;;;;;;0.17;0.17;;;;;;;22.00;50.03;101177.59;5133398;27;20086;-43
2022/06/20 09:30:03;;;;;;;0.30;0.30;;;;;;;21.80;50.44;101178.63;5142279;27;21124;-42
2022/06/20 09:33:01;;;;;;;0.10;0.10;;;;;;;21.92;51.61;101176.28;5128175;27;20525;-46
2022/06/20 09:35:55;;;;;;;0.10;0.10;;;;;;;22.05;51.39;101183.06;5147047;27;20078;-48
2022/06/20 09:39:01;;;;;;;0.10;0.10;;;;;;;21.88;49.38;101179.94;5134327;27;20454;-46
2022/06/20 09:41:34;;;;;;;0.10;0.10;;;;;;;21.89;49.24;101184.34;5116643;27;20407;-52
2022/06/20 09:49:52;;;;;;;0.10;0.10;;;;;;;21.69;47.34;101193.72;5152742;27;20545;-46
2022/06/20 09:52:32;;;;;;;0.10;0.10;;;;;;;21.75;48.16;101198.91;5142763;27;20129;-38
2022/06/20 09:55:30;;;;;;;0.10;0.10;;;;;;;21.80;48.26;101198.03;5135616;27;20169;-42
2022/06/20 09:58:36;;;;;;;0.10;0.10;;;;;;;21.75;48.01;101190.56;5133475;27;20145;-43
2022/06/20 10:01:31;;;;;;;0.10;0.10;;;;;;;21.88;48.42;101191.03;5124987;27;20070;-49
2022/06/20 10:04:34;;;;;;;0.13;0.13;;;;;;;21.88;48.52;101185.47;5139361;27;20038;-39
2022/06/20 10:07:31;;;;;;;0.20;0.20;;;;;;;21.85;48.47;101186.91;5127574;27;20130;-40
2022/06/20 10:13:08;;;;;;;0.20;0.20;;;;;;;21.81;49.22;101199.69;5170304;27;20199;-43
2022/06/20 10:16:13;;;;;;;0.10;0.10;;;;;;;21.72;48.08;101207.00;5132959;27;20540;-39
2022/06/20 10:19:19;;;;;;;0.20;0.20;;;;;;;21.73;48.15;101206.69;5119579;27;20555;-43
2022/06/20 10:21:50;;;;;;;0.10;0.10;;;;;;;21.70;47.81;101209.22;5109518;27;20555;-40
2022/06/20 10:24:56;;;;;;;0.20;0.20;;;;;;;21.70;47.94;101221.13;5123114;27;20061;-40
2022/06/20 10:28:02;;;;;;;0.20;0.20;;;;;;;21.80;48.00;101217.44;5120209;27;20080;-41
2022/06/20 10:30:47;;;;;;;0.20;0.20;;;;;;;21.83;48.36;101213.25;5128852;27;20477;-39
2022/06/20 10:33:28;;;;;;;0.10;0.10;;;;;;;21.74;48.02;101221.38;5143034;27;20244;-40
2022/06/20 10:36:18;;;;;;;0.20;0.20;;;;;;;21.80;48.22;101222.97;5147565;27;20141;-41
2022/06/20 10:38:59;;;;;;;0.10;0.10;;;;;;;21.74;47.99;101219.44;5125284;27;20150;-39
2022/06/20 10:44:48;;;;;;;0.10;0.10;;;;;;;21.69;46.94;101227.78;5153251;27;20202;-39
2022/06/20 10:47:40;;;;;;;0.10;0.10;;;;;;;21.61;45.05;101228.41;5145753;27;20179;-39
2022/06/20 10:50:21;;;;;;;0.10;0.10;;;;;;;21.81;46.06;101221.06;5132653;27;20100;-41
2022/06/20 10:52:58;;;;;;;0.10;0.10;;;;;;;21.86;46.43;101227.38;5129669;27;20381;-41
2022/06/20 10:55:36;;;;;;;0.15;0.15;;;;;;;21.90;45.91;101233.97;5139761;27;20133;-43
2022/06/20 10:58:23;;;;;;;0.20;0.20;;;;;;;21.90;46.95;101225.66;5148578;27;20085;-42
2022/06/20 11:00:54;;;;;;;0.10;0.10;;;;;;;21.92;46.78;101230.91;5148891;27;20544;-42
2022/06/20 11:04:00;;;;;;;0.10;0.10;;;;;;;21.91;46.76;101223.72;5131028;27;20400;-44
2022/06/20 11:07:04;;;;;;;0.10;0.10;;;;;;;21.94;46.42;101223.97;5131366;27;20042;-40
2022/06/20 11:09:42;;;;;;;0.20;0.20;;;;;;;21.94;47.28;101225.91;5134086;27;20066;-37
2022/06/20 11:12:30;;;;;;;0.10;0.10;;;;;;;21.95;47.48;101227.56;5142373;27;20070;-43
2022/06/20 11:15:20;;;;;;;0.10;0.10;;;;;;;21.96;46.94;101226.44;5146663;27;20130;-43
2022/06/20 11:18:14;;;;;;;0.10;0.10;;;;;;;21.95;46.74;101228.38;5125403;27;20129;-42
2022/06/20 11:20:45;;;;;;;0.10;0.10;;;;;;;21.96;47.91;101232.81;5125026;27;20145;-42
2022/06/20 11:23:18;;;;;;;0.10;0.10;;;;;;;21.97;47.00;101228.91;5130775;27;20070;-42
2022/06/20 11:26:08;;;;;;;0.20;0.20;;;;;;;21.98;46.98;101230.59;5147808;27;20479;-45
2022/06/20 11:29:13;;;;;;;0.20;0.20;;;;;;;21.98;46.60;101226.97;5132451;27;20203;-42
2022/06/20 11:32:07;;;;;;;0.10;0.10;;;;;;;21.96;46.57;101229.22;5135065;27;20078;-39
2022/06/20 11:34:47;;;;;;;0.10;0.10;;;;;;;21.99;46.71;101228.63;5131414;27;20138;-44
2022/06/20 11:37:21;;;;;;;0.10;0.10;;;;;;;21.99;47.23;101225.84;5156317;27;20425;-43
2022/06/20 11:43:00;;;;;;;0.10;0.10;;;;;;;22.03;46.59;101218.59;5157719;27;21066;-37
2022/06/20 11:45:54;;;;;;;0.10;0.10;;;;;;;22.03;47.08;101230.53;5117257;27;20079;-35
2022/06/20 11:48:30;;;;;;;0.10;0.10;;;;;;;22.01;47.09;101226.38;5114545;27;20131;-35
2022/06/20 11:51:18;;;;;;;0.20;0.20;;;;;;;22.05;47.17;101225.50;5137971;27;20131;-40
2022/06/20 11:54:03;;;;;;;;;;;;;;;22.06;46.89;101218.00;5128291;27;20145;-41
2022/06/20 11:56:38;;;;;;;0.10;0.10;;;;;;;22.03;47.32;101222.19;5119683;27;20392;-38
2022/06/20 11:59:26;;;;;;;0.20;0.20;;;;;;;22.03;47.68;101224.16;5115691;27;20496;-41
2022/06/20 12:02:01;;;;;;;0.20;0.20;;;;;;;22.03;47.16;101226.94;5115464;27;20514;-37
2022/06/20 12:04:36;;;;;;;0.10;0.10;;;;;;;22.04;47.84;101218.31;5117235;27;20129;-40
2022/06/20 12:07:28;;;;;;;0.10;0.10;;;;;;;22.05;47.51;101219.94;5135130;27;20069;-43
2022/06/20 12:10:02;;;;;;;0.10;0.10;;;;;;;22.04;47.59;101214.72;5123792;27;20663;-39
2022/06/20 12:15:36;;;;;;;0.10;0.10;;;;;;;22.04;47.86;101209.97;5149027;27;20124;-41
2022/06/20 12:18:27;;;;;;;0.10;0.10;;;;;;;22.04;47.68;101212.75;5126871;27;20133;-43
2022/06/20 12:23:45;;;;;;;0.10;0.10;;;;;;;22.04;46.90;101207.22;5113996;27;20070;-45
2022/06/20 12:26:33;;;;;;;0.10;0.10;;;;;;;22.07;47.02;101216.91;5119229;27;20141;-42
2022/06/20 12:29:00;;;;;;;0.10;0.10;;;;;;;22.09;47.23;101216.59;5112189;27;20549;-44
2022/06/20 12:31:33;;;;;;;0.10;0.10;;;;;;;22.08;46.77;101207.47;5121114;27;20133;-41
2022/06/20 12:34:39;;;;;;;0.13;0.13;;;;;;;22.08;47.56;101206.63;5133521;27;20063;-46
2022/06/20 12:39:57;;;;;;;0.10;0.10;;;;;;;22.07;46.58;101203.03;5153193;27;20205;-40
2022/06/20 12:46:06;;;;;;;0.10;0.10;;;;;;;22.08;47.34;101207.47;5154647;27;20221;-40
2022/06/20 12:48:55;;;;;;;0.10;0.10;;;;;;;22.09;46.84;101205.50;5131831;27;20053;-40